Tonyrefail, United Kingdom
Current Conditions -  °F | °C
As of 7:50 PM on Sunday 25 Jan 2015 (Local Time) from EGDX Reporting Station
Overcast Overcast  
Wind Chill: 43°   Ceiling: 500
Heat Index: 48°   Visibility: 6mi
Dew Point: 46°   Wind: 13mph
Humidity: 93%   Direction: 250°WSW
Pressure: 30.33"   Gusts: NA
Location:  51.58°N, 3.43°W
Report Text: EGDX 251950Z AUTO 25011KT 9999 OVC005/// 09/08 Q1027
Loading
Personal Weather Stations






























Interactive Weather Map New forecast layout! Learn more

10-Day Weather Forecast

Advertisements
Track Severe Weather on mobile